Terminal Aerodrome Forecast
Issued by NWS

Home | Current Version | Previous Version | Text Only | Print | Product List | Glossary On
Versions: 1 2 3 4 5 6 7 8 9 10 11 12 13 14 15 16 17 18 19
000
FTUS46 KSEW 132300
TAFSEA
TAF
KSEA 132320Z 1400/1506 30007KT P6SM SCT120 BKN200
     FM140400 VRB06KT P6SM SCT060 BKN120 BKN200
      TEMPO 1404/1408 -TSRA BKN060CB OVC120
     FM140800 21012KT P6SM BKN120 BKN200
     FM141100 18006KT P6SM SCT005 SCT100
      TEMPO 1412/1416 3SM BR BKN005
     FM141700 33008KT P6SM SKC=

USA.gov is the U.S. government's official web portal to all federal, state and local government web resources and services.